sensor_id;sensor_type;location;lat;lon;timestamp;temperature;humidity
4960;DHT22;2495;48.200;11.532;2023-07-09T00:02:21;24.70;54.20
4960;DHT22;2495;48.200;11.532;2023-07-09T00:07:27;24.60;55.00
4960;DHT22;2495;48.200;11.532;2023-07-09T00:12:26;24.70;54.60
4960;DHT22;2495;48.200;11.532;2023-07-09T00:17:28;24.70;54.70
4960;DHT22;2495;48.200;11.532;2023-07-09T00:22:31;24.60;54.90
4960;DHT22;2495;48.200;11.532;2023-07-09T00:27:32;24.50;56.00
4960;DHT22;2495;48.200;11.532;2023-07-09T00:32:34;24.60;56.10
4960;DHT22;2495;48.200;11.532;2023-07-09T00:37:35;24.60;56.40
4960;DHT22;2495;48.200;11.532;2023-07-09T00:42:36;24.60;56.10
4960;DHT22;2495;48.200;11.532;2023-07-09T00:47:43;24.40;56.80
4960;DHT22;2495;48.200;11.532;2023-07-09T00:52:58;24.40;56.90
4960;DHT22;2495;48.200;11.532;2023-07-09T00:57:59;24.20;57.10
4960;DHT22;2495;48.200;11.532;2023-07-09T01:03:00;24.00;58.10
4960;DHT22;2495;48.200;11.532;2023-07-09T01:08:01;24.00;57.30
4960;DHT22;2495;48.200;11.532;2023-07-09T01:13:02;23.90;57.30
4960;DHT22;2495;48.200;11.532;2023-07-09T01:18:06;23.80;57.50
4960;DHT22;2495;48.200;11.532;2023-07-09T01:23:07;23.80;58.00
4960;DHT22;2495;48.200;11.532;2023-07-09T01:28:08;23.80;58.10
4960;DHT22;2495;48.200;11.532;2023-07-09T01:33:10;23.80;58.40
4960;DHT22;2495;48.200;11.532;2023-07-09T01:38:11;23.80;59.40
4960;DHT22;2495;48.200;11.532;2023-07-09T01:43:12;23.90;59.10
4960;DHT22;2495;48.200;11.532;2023-07-09T01:48:13;23.90;59.80
4960;DHT22;2495;48.200;11.532;2023-07-09T01:53:15;24.10;59.80
4960;DHT22;2495;48.200;11.532;2023-07-09T01:58:16;24.10;59.20
4960;DHT22;2495;48.200;11.532;2023-07-09T02:03:18;24.10;60.50
4960;DHT22;2495;48.200;11.532;2023-07-09T02:08:19;24.00;60.20
4960;DHT22;2495;48.200;11.532;2023-07-09T02:13:20;24.10;60.50
4960;DHT22;2495;48.200;11.532;2023-07-09T02:18:21;24.10;59.90
4960;DHT22;2495;48.200;11.532;2023-07-09T02:23:26;23.90;60.90
4960;DHT22;2495;48.200;11.532;2023-07-09T02:28:26;23.90;61.10
4960;DHT22;2495;48.200;11.532;2023-07-09T02:33:28;23.90;60.50
4960;DHT22;2495;48.200;11.532;2023-07-09T02:38:29;23.80;60.60
4960;DHT22;2495;48.200;11.532;2023-07-09T02:43:30;23.60;61.10
4960;DHT22;2495;48.200;11.532;2023-07-09T02:48:31;23.40;62.00
4960;DHT22;2495;48.200;11.532;2023-07-09T02:53:32;23.20;63.30
4960;DHT22;2495;48.200;11.532;2023-07-09T02:58:34;23.40;63.30
4960;DHT22;2495;48.200;11.532;2023-07-09T03:03:35;23.50;62.40
4960;DHT22;2495;48.200;11.532;2023-07-09T03:08:36;23.50;63.10
4960;DHT22;2495;48.200;11.532;2023-07-09T03:13:37;23.60;63.40
4960;DHT22;2495;48.200;11.532;2023-07-09T03:18:39;23.60;63.50
4960;DHT22;2495;48.200;11.532;2023-07-09T03:23:40;23.60;62.70
4960;DHT22;2495;48.200;11.532;2023-07-09T03:28:41;23.40;63.50
4960;DHT22;2495;48.200;11.532;2023-07-09T03:33:42;23.20;63.90
4960;DHT22;2495;48.200;11.532;2023-07-09T03:38:43;23.30;64.00
4960;DHT22;2495;48.200;11.532;2023-07-09T03:43:45;23.20;64.00
4960;DHT22;2495;48.200;11.532;2023-07-09T03:48:47;23.10;63.80
4960;DHT22;2495;48.200;11.532;2023-07-09T03:53:49;22.80;65.00
4960;DHT22;2495;48.200;11.532;2023-07-09T03:58:50;22.80;64.90
4960;DHT22;2495;48.200;11.532;2023-07-09T04:03:51;22.70;66.40
4960;DHT22;2495;48.200;11.532;2023-07-09T04:08:52;22.90;66.80
4960;DHT22;2495;48.200;11.532;2023-07-09T04:13:54;23.00;66.00
4960;DHT22;2495;48.200;11.532;2023-07-09T04:18:55;23.00;67.00
4960;DHT22;2495;48.200;11.532;2023-07-09T04:23:56;23.20;67.10
4960;DHT22;2495;48.200;11.532;2023-07-09T04:28:57;23.20;66.40
4960;DHT22;2495;48.200;11.532;2023-07-09T04:33:58;23.20;67.80
4960;DHT22;2495;48.200;11.532;2023-07-09T04:39:00;23.40;67.10
4960;DHT22;2495;48.200;11.532;2023-07-09T04:44:01;23.50;66.10
4960;DHT22;2495;48.200;11.532;2023-07-09T04:49:03;23.50;65.70
4960;DHT22;2495;48.200;11.532;2023-07-09T04:54:03;23.40;65.50
4960;DHT22;2495;48.200;11.532;2023-07-09T04:59:05;23.40;65.50
4960;DHT22;2495;48.200;11.532;2023-07-09T05:04:06;23.40;66.20
4960;DHT22;2495;48.200;11.532;2023-07-09T05:09:07;23.40;65.40
4960;DHT22;2495;48.200;11.532;2023-07-09T05:14:08;23.50;66.30
4960;DHT22;2495;48.200;11.532;2023-07-09T05:19:10;23.70;65.70
4960;DHT22;2495;48.200;11.532;2023-07-09T05:24:11;23.90;66.10
4960;DHT22;2495;48.200;11.532;2023-07-09T05:29:12;24.20;65.90
4960;DHT22;2495;48.200;11.532;2023-07-09T05:34:13;24.30;64.80
4960;DHT22;2495;48.200;11.532;2023-07-09T05:39:15;24.60;64.80
4960;DHT22;2495;48.200;11.532;2023-07-09T05:44:16;24.80;63.60
4960;DHT22;2495;48.200;11.532;2023-07-09T05:49:17;24.80;63.10
4960;DHT22;2495;48.200;11.532;2023-07-09T05:54:18;25.10;63.70
4960;DHT22;2495;48.200;11.532;2023-07-09T05:59:19;25.50;63.20
4960;DHT22;2495;48.200;11.532;2023-07-09T06:04:20;25.60;62.00
4960;DHT22;2495;48.200;11.532;2023-07-09T06:09:22;25.70;62.20
4960;DHT22;2495;48.200;11.532;2023-07-09T06:14:23;25.90;61.20
4960;DHT22;2495;48.200;11.532;2023-07-09T06:19:24;26.30;61.10
4960;DHT22;2495;48.200;11.532;2023-07-09T06:24:25;26.40;60.00
4960;DHT22;2495;48.200;11.532;2023-07-09T06:29:26;26.60;59.80
4960;DHT22;2495;48.200;11.532;2023-07-09T06:34:28;26.70;59.10
4960;DHT22;2495;48.200;11.532;2023-07-09T06:39:29;26.80;58.50
4960;DHT22;2495;48.200;11.532;2023-07-09T06:44:30;27.00;58.90
4960;DHT22;2495;48.200;11.532;2023-07-09T06:49:31;27.20;58.00
4960;DHT22;2495;48.200;11.532;2023-07-09T06:54:32;27.70;57.90
4960;DHT22;2495;48.200;11.532;2023-07-09T06:59:34;28.10;56.40
4960;DHT22;2495;48.200;11.532;2023-07-09T07:04:35;28.50;55.70
4960;DHT22;2495;48.200;11.532;2023-07-09T07:09:36;29.00;55.10
4960;DHT22;2495;48.200;11.532;2023-07-09T07:14:37;29.10;52.50
4960;DHT22;2495;48.200;11.532;2023-07-09T07:19:39;29.40;51.70
4960;DHT22;2495;48.200;11.532;2023-07-09T07:24:40;29.80;50.90
4960;DHT22;2495;48.200;11.532;2023-07-09T07:29:44;30.10;49.90
4960;DHT22;2495;48.200;11.532;2023-07-09T07:34:46;30.70;49.70
4960;DHT22;2495;48.200;11.532;2023-07-09T07:39:47;31.80;48.90
4960;DHT22;2495;48.200;11.532;2023-07-09T07:44:47;32.20;46.50
4960;DHT22;2495;48.200;11.532;2023-07-09T07:49:57;32.50;46.70
4960;DHT22;2495;48.200;11.532;2023-07-09T07:55:07;33.40;43.50
4960;DHT22;2495;48.200;11.532;2023-07-09T08:00:09;33.40;43.40
4960;DHT22;2495;48.200;11.532;2023-07-09T08:05:11;33.60;43.10
4960;DHT22;2495;48.200;11.532;2023-07-09T08:10:12;34.00;42.40
4960;DHT22;2495;48.200;11.532;2023-07-09T08:15:13;34.30;41.60
4960;DHT22;2495;48.200;11.532;2023-07-09T08:20:15;34.60;40.90
4960;DHT22;2495;48.200;11.532;2023-07-09T08:25:16;34.90;40.10
4960;DHT22;2495;48.200;11.532;2023-07-09T08:30:17;35.10;39.80
4960;DHT22;2495;48.200;11.532;2023-07-09T08:35:18;35.50;38.80
4960;DHT22;2495;48.200;11.532;2023-07-09T08:40:19;35.80;38.00
4960;DHT22;2495;48.200;11.532;2023-07-09T08:50:54;36.60;35.70
4960;DHT22;2495;48.200;11.532;2023-07-09T08:55:51;36.90;35.20
4960;DHT22;2495;48.200;11.532;2023-07-09T09:00:56;37.20;34.40
4960;DHT22;2495;48.200;11.532;2023-07-09T09:05:56;37.50;33.50
4960;DHT22;2495;48.200;11.532;2023-07-09T09:11:01;37.80;32.00
4960;DHT22;2495;48.200;11.532;2023-07-09T09:16:00;38.00;31.50
4960;DHT22;2495;48.200;11.532;2023-07-09T09:22:18;38.20;30.90
4960;DHT22;2495;48.200;11.532;2023-07-09T09:26:34;38.40;31.50
4960;DHT22;2495;48.200;11.532;2023-07-09T09:31:36;39.30;31.00
4960;DHT22;2495;48.200;11.532;2023-07-09T09:36:39;39.80;29.70
4960;DHT22;2495;48.200;11.532;2023-07-09T09:41:38;39.70;29.50
4960;DHT22;2495;48.200;11.532;2023-07-09T09:46:39;40.10;29.00
4960;DHT22;2495;48.200;11.532;2023-07-09T09:51:42;40.80;29.20
4960;DHT22;2495;48.200;11.532;2023-07-09T09:56:42;41.10;28.50
4960;DHT22;2495;48.200;11.532;2023-07-09T10:01:43;41.20;27.70
4960;DHT22;2495;48.200;11.532;2023-07-09T10:06:46;41.90;27.60
4960;DHT22;2495;48.200;11.532;2023-07-09T10:17:27;42.10;26.90
4960;DHT22;2495;48.200;11.532;2023-07-09T10:22:50;42.20;26.80
4960;DHT22;2495;48.200;11.532;2023-07-09T10:33:30;41.90;26.40
4960;DHT22;2495;48.200;11.532;2023-07-09T10:44:58;41.40;26.00
4960;DHT22;2495;48.200;11.532;2023-07-09T10:49:17;41.70;25.60
4960;DHT22;2495;48.200;11.532;2023-07-09T10:54:28;42.10;25.50
4960;DHT22;2495;48.200;11.532;2023-07-09T10:59:29;42.00;25.40
4960;DHT22;2495;48.200;11.532;2023-07-09T11:04:35;41.50;25.40
4960;DHT22;2495;48.200;11.532;2023-07-09T11:09:38;41.50;25.40
4960;DHT22;2495;48.200;11.532;2023-07-09T11:14:43;40.60;25.90
4960;DHT22;2495;48.200;11.532;2023-07-09T11:19:46;39.60;26.40
4960;DHT22;2495;48.200;11.532;2023-07-09T11:24:51;39.50;26.30
4960;DHT22;2495;48.200;11.532;2023-07-09T11:29:58;40.80;26.20
4960;DHT22;2495;48.200;11.532;2023-07-09T11:35:20;41.40;25.50
4960;DHT22;2495;48.200;11.532;2023-07-09T11:40:12;41.80;25.00
4960;DHT22;2495;48.200;11.532;2023-07-09T11:45:17;41.60;25.50
4960;DHT22;2495;48.200;11.532;2023-07-09T11:50:27;40.80;25.70
4960;DHT22;2495;48.200;11.532;2023-07-09T11:55:26;40.60;25.60
4960;DHT22;2495;48.200;11.532;2023-07-09T12:00:30;40.70;25.30
4960;DHT22;2495;48.200;11.532;2023-07-09T12:05:30;40.50;26.10
4960;DHT22;2495;48.200;11.532;2023-07-09T12:10:32;41.40;25.80
4960;DHT22;2495;48.200;11.532;2023-07-09T12:15:33;40.80;27.10
4960;DHT22;2495;48.200;11.532;2023-07-09T12:20:35;40.50;26.50
4960;DHT22;2495;48.200;11.532;2023-07-09T12:25:35;40.70;26.40
4960;DHT22;2495;48.200;11.532;2023-07-09T12:30:37;40.40;26.80
4960;DHT22;2495;48.200;11.532;2023-07-09T12:35:39;39.80;27.20
4960;DHT22;2495;48.200;11.532;2023-07-09T12:40:41;38.90;27.50
4960;DHT22;2495;48.200;11.532;2023-07-09T12:45:42;38.90;27.40
4960;DHT22;2495;48.200;11.532;2023-07-09T12:50:47;38.50;27.90
4960;DHT22;2495;48.200;11.532;2023-07-09T12:55:45;38.10;28.10
4960;DHT22;2495;48.200;11.532;2023-07-09T13:00:53;37.50;28.70
4960;DHT22;2495;48.200;11.532;2023-07-09T13:11:16;37.60;28.80
4960;DHT22;2495;48.200;11.532;2023-07-09T13:16:17;37.80;28.70
4960;DHT22;2495;48.200;11.532;2023-07-09T13:21:27;37.90;28.10
4960;DHT22;2495;48.200;11.532;2023-07-09T13:26:36;37.50;28.60
4960;DHT22;2495;48.200;11.532;2023-07-09T13:31:37;37.40;28.70
4960;DHT22;2495;48.200;11.532;2023-07-09T13:36:38;37.70;28.30
4960;DHT22;2495;48.200;11.532;2023-07-09T13:41:40;37.60;28.60
4960;DHT22;2495;48.200;11.532;2023-07-09T13:46:41;37.80;28.10
4960;DHT22;2495;48.200;11.532;2023-07-09T13:51:42;37.80;27.80
4960;DHT22;2495;48.200;11.532;2023-07-09T13:56:43;37.80;28.00
4960;DHT22;2495;48.200;11.532;2023-07-09T14:01:44;38.20;28.10
4960;DHT22;2495;48.200;11.532;2023-07-09T14:06:46;39.20;28.00
4960;DHT22;2495;48.200;11.532;2023-07-09T14:11:48;39.50;27.40
4960;DHT22;2495;48.200;11.532;2023-07-09T14:16:49;39.80;27.00
4960;DHT22;2495;48.200;11.532;2023-07-09T14:21:50;39.20;26.70
4960;DHT22;2495;48.200;11.532;2023-07-09T14:26:51;37.70;28.10
4960;DHT22;2495;48.200;11.532;2023-07-09T14:31:52;37.50;28.40
4960;DHT22;2495;48.200;11.532;2023-07-09T14:36:57;37.10;28.70
4960;DHT22;2495;48.200;11.532;2023-07-09T14:42:10;36.80;28.40
4960;DHT22;2495;48.200;11.532;2023-07-09T14:47:11;36.50;28.60
4960;DHT22;2495;48.200;11.532;2023-07-09T14:52:15;36.60;28.80
4960;DHT22;2495;48.200;11.532;2023-07-09T14:57:23;36.60;28.60
4960;DHT22;2495;48.200;11.532;2023-07-09T15:02:36;36.80;28.90
4960;DHT22;2495;48.200;11.532;2023-07-09T15:07:37;37.00;29.30
4960;DHT22;2495;48.200;11.532;2023-07-09T15:12:38;37.30;28.70
4960;DHT22;2495;48.200;11.532;2023-07-09T15:17:39;37.40;28.40
4960;DHT22;2495;48.200;11.532;2023-07-09T15:22:40;37.30;28.70
4960;DHT22;2495;48.200;11.532;2023-07-09T15:27:42;37.50;28.60
4960;DHT22;2495;48.200;11.532;2023-07-09T15:32:43;37.50;28.60
4960;DHT22;2495;48.200;11.532;2023-07-09T15:37:44;37.60;28.40
4960;DHT22;2495;48.200;11.532;2023-07-09T15:42:49;37.70;28.10
4960;DHT22;2495;48.200;11.532;2023-07-09T15:47:50;37.70;28.40
4960;DHT22;2495;48.200;11.532;2023-07-09T15:52:51;37.70;28.10
4960;DHT22;2495;48.200;11.532;2023-07-09T15:57:52;37.40;28.20
4960;DHT22;2495;48.200;11.532;2023-07-09T16:02:53;37.20;28.40
4960;DHT22;2495;48.200;11.532;2023-07-09T16:07:55;36.80;28.10
4960;DHT22;2495;48.200;11.532;2023-07-09T16:12:56;36.30;28.30
4960;DHT22;2495;48.200;11.532;2023-07-09T16:17:56;36.00;29.10
4960;DHT22;2495;48.200;11.532;2023-07-09T16:23:01;36.00;29.30
4960;DHT22;2495;48.200;11.532;2023-07-09T16:28:08;35.80;29.20
4960;DHT22;2495;48.200;11.532;2023-07-09T16:33:08;35.40;30.10
4960;DHT22;2495;48.200;11.532;2023-07-09T16:38:10;35.40;29.50
4960;DHT22;2495;48.200;11.532;2023-07-09T16:43:13;35.10;30.10
4960;DHT22;2495;48.200;11.532;2023-07-09T16:48:18;35.20;30.20
4960;DHT22;2495;48.200;11.532;2023-07-09T16:53:19;35.20;30.00
4960;DHT22;2495;48.200;11.532;2023-07-09T16:58:32;35.00;30.00
4960;DHT22;2495;48.200;11.532;2023-07-09T17:03:33;34.90;30.40
4960;DHT22;2495;48.200;11.532;2023-07-09T17:08:34;34.90;30.40
4960;DHT22;2495;48.200;11.532;2023-07-09T17:13:36;34.90;30.30
4960;DHT22;2495;48.200;11.532;2023-07-09T17:18:37;34.60;30.40
4960;DHT22;2495;48.200;11.532;2023-07-09T17:23:38;34.40;30.70
4960;DHT22;2495;48.200;11.532;2023-07-09T17:28:39;34.20;30.80
4960;DHT22;2495;48.200;11.532;2023-07-09T17:33:41;34.20;31.00
4960;DHT22;2495;48.200;11.532;2023-07-09T17:38:42;33.90;31.10
4960;DHT22;2495;48.200;11.532;2023-07-09T17:43:46;33.80;31.30
4960;DHT22;2495;48.200;11.532;2023-07-09T17:48:45;33.60;31.30
4960;DHT22;2495;48.200;11.532;2023-07-09T17:53:46;33.80;31.60
4960;DHT22;2495;48.200;11.532;2023-07-09T17:58:48;33.80;31.20
4960;DHT22;2495;48.200;11.532;2023-07-09T18:03:49;33.60;32.00
4960;DHT22;2495;48.200;11.532;2023-07-09T18:08:53;33.60;31.70
4960;DHT22;2495;48.200;11.532;2023-07-09T18:13:55;33.40;32.20
4960;DHT22;2495;48.200;11.532;2023-07-09T18:18:56;33.40;32.00
4960;DHT22;2495;48.200;11.532;2023-07-09T18:23:57;33.20;32.10
4960;DHT22;2495;48.200;11.532;2023-07-09T18:28:59;33.00;32.20
4960;DHT22;2495;48.200;11.532;2023-07-09T18:34:00;32.80;32.30
4960;DHT22;2495;48.200;11.532;2023-07-09T18:39:01;32.70;33.00
4960;DHT22;2495;48.200;11.532;2023-07-09T18:50:20;32.60;33.10
4960;DHT22;2495;48.200;11.532;2023-07-09T18:55:22;32.40;34.00
4960;DHT22;2495;48.200;11.532;2023-07-09T19:00:23;32.40;33.80
4960;DHT22;2495;48.200;11.532;2023-07-09T19:05:25;32.30;34.40
4960;DHT22;2495;48.200;11.532;2023-07-09T19:10:26;32.30;34.20
4960;DHT22;2495;48.200;11.532;2023-07-09T19:15:28;32.00;34.90
4960;DHT22;2495;48.200;11.532;2023-07-09T19:20:28;32.00;34.90
4960;DHT22;2495;48.200;11.532;2023-07-09T19:25:29;31.80;35.60
4960;DHT22;2495;48.200;11.532;2023-07-09T19:30:30;31.70;35.50
4960;DHT22;2495;48.200;11.532;2023-07-09T19:35:31;31.50;35.60
4960;DHT22;2495;48.200;11.532;2023-07-09T19:40:32;31.30;36.20
4960;DHT22;2495;48.200;11.532;2023-07-09T19:45:36;31.00;37.10
4960;DHT22;2495;48.200;11.532;2023-07-09T19:50:36;31.00;37.60
4960;DHT22;2495;48.200;11.532;2023-07-09T19:55:38;30.80;37.90
4960;DHT22;2495;48.200;11.532;2023-07-09T20:00:39;30.80;37.70
4960;DHT22;2495;48.200;11.532;2023-07-09T20:05:40;30.50;38.90
4960;DHT22;2495;48.200;11.532;2023-07-09T20:10:41;30.50;39.10
4960;DHT22;2495;48.200;11.532;2023-07-09T20:15:42;30.40;39.50
4960;DHT22;2495;48.200;11.532;2023-07-09T20:21:05;30.20;40.40
4960;DHT22;2495;48.200;11.532;2023-07-09T20:25:51;29.90;41.10
4960;DHT22;2495;48.200;11.532;2023-07-09T20:30:52;29.90;41.60
4960;DHT22;2495;48.200;11.532;2023-07-09T20:35:53;29.90;41.40
4960;DHT22;2495;48.200;11.532;2023-07-09T20:40:54;29.80;41.80
4960;DHT22;2495;48.200;11.532;2023-07-09T20:45:56;29.40;42.60
4960;DHT22;2495;48.200;11.532;2023-07-09T20:50:57;29.50;42.40
4960;DHT22;2495;48.200;11.532;2023-07-09T20:55:59;29.30;43.30
4960;DHT22;2495;48.200;11.532;2023-07-09T21:01:00;29.20;43.20
4960;DHT22;2495;48.200;11.532;2023-07-09T21:06:01;29.30;42.80
4960;DHT22;2495;48.200;11.532;2023-07-09T21:11:02;29.10;42.90
4960;DHT22;2495;48.200;11.532;2023-07-09T21:16:08;28.60;44.20
4960;DHT22;2495;48.200;11.532;2023-07-09T21:21:07;28.60;44.10
4960;DHT22;2495;48.200;11.532;2023-07-09T21:26:11;28.70;44.20
4960;DHT22;2495;48.200;11.532;2023-07-09T21:31:15;28.80;43.90
4960;DHT22;2495;48.200;11.532;2023-07-09T21:36:12;28.60;44.70
4960;DHT22;2495;48.200;11.532;2023-07-09T21:41:14;28.50;44.90
4960;DHT22;2495;48.200;11.532;2023-07-09T21:46:25;28.60;44.60
4960;DHT22;2495;48.200;11.532;2023-07-09T21:51:22;28.40;44.80
4960;DHT22;2495;48.200;11.532;2023-07-09T21:56:23;28.00;45.40
4960;DHT22;2495;48.200;11.532;2023-07-09T22:01:25;27.80;46.40
4960;DHT22;2495;48.200;11.532;2023-07-09T22:06:26;27.90;46.50
4960;DHT22;2495;48.200;11.532;2023-07-09T22:11:27;28.00;46.10
4960;DHT22;2495;48.200;11.532;2023-07-09T22:16:28;27.90;46.30
4960;DHT22;2495;48.200;11.532;2023-07-09T22:21:29;27.60;46.40
4960;DHT22;2495;48.200;11.532;2023-07-09T22:26:31;27.50;46.50
4960;DHT22;2495;48.200;11.532;2023-07-09T22:31:32;27.40;46.80
4960;DHT22;2495;48.200;11.532;2023-07-09T22:36:33;27.30;47.40
4960;DHT22;2495;48.200;11.532;2023-07-09T22:41:34;27.20;47.80
4960;DHT22;2495;48.200;11.532;2023-07-09T22:46:35;27.00;48.10
4960;DHT22;2495;48.200;11.532;2023-07-09T22:51:37;26.90;48.30
4960;DHT22;2495;48.200;11.532;2023-07-09T22:56:38;26.80;48.90
4960;DHT22;2495;48.200;11.532;2023-07-09T23:01:39;26.80;49.20
4960;DHT22;2495;48.200;11.532;2023-07-09T23:06:40;26.70;49.50
4960;DHT22;2495;48.200;11.532;2023-07-09T23:11:42;26.50;50.30
4960;DHT22;2495;48.200;11.532;2023-07-09T23:16:43;26.50;50.40
4960;DHT22;2495;48.200;11.532;2023-07-09T23:21:47;26.50;50.30
4960;DHT22;2495;48.200;11.532;2023-07-09T23:26:50;26.40;51.00
4960;DHT22;2495;48.200;11.532;2023-07-09T23:31:50;26.30;51.30
4960;DHT22;2495;48.200;11.532;2023-07-09T23:36:51;26.40;51.70
4960;DHT22;2495;48.200;11.532;2023-07-09T23:41:52;26.50;51.10
4960;DHT22;2495;48.200;11.532;2023-07-09T23:46:53;26.40;51.00
4960;DHT22;2495;48.200;11.532;2023-07-09T23:51:55;26.20;52.20
4960;DHT22;2495;48.200;11.532;2023-07-09T23:56:56;26.10;52.40
